Bookmark and Share
Track history (hours):
 

Sea-land Charger

More information available from US FCC via Universal Licensing System.

Last reported at 2014-Apr-14 09:30 UTC. Time now 2014-Apr-17 04:00 UTC.
Position N 34°02' E 130°51'.

Type: Cargo ship. MMSI: 303279000.

NotesDate/timePositionNaut miles runAvg speedWind from/ knotsBaromVisibWave heightAir tempDewpointWater temp
2014-Apr-14 09:30N 34°02' E 130°51'203 8.1
2014-Apr-13 08:33N 33°56' E 134°56'1111.0
2014-Apr-13 07:33N 34°07' E 134°56'1110.7
2014-Apr-13 06:33N 34°18' E 134°59'1817.9
2014-Apr-13 05:33N 34°31' E 135°13'10 9.8
2014-Apr-13 04:33N 34°41' E 135°16'0 0.0
2014-Apr-13 03:32N 34°41' E 135°16'0 0.0
2014-Apr-13 02:32N 34°41' E 135°16'0 0.0
2014-Apr-13 01:32N 34°41' E 135°16'0 0.0
2014-Apr-13 00:32N 34°41' E 135°16'1 0.9
2014-Apr-12 23:33N 34°40' E 135°15'10 9.9
2014-Apr-12 22:33N 34°31' E 135°12'1413.9
2014-Apr-12 21:33N 34°20' E 135°01'1212.1
2014-Apr-12 20:33N 34°08' E 134°59'10 9.8
2014-Apr-12 19:32N 33°58' E 134°59'24112.0
2014-Apr-11 23:33N 35°01' E 139°41'1414.4
2014-Apr-11 22:33N 35°14' E 139°46'1110.6
2014-Apr-11 21:33N 35°24' E 139°40'0 0.4
2014-Apr-11 20:32N 35°24' E 139°41'0 0.0
2014-Apr-11 19:32N 35°24' E 139°41'0 0.0
2014-Apr-11 18:32N 35°24' E 139°41'0 0.0
2014-Apr-11 17:32N 35°24' E 139°41'0 0.0
2014-Apr-11 16:32N 35°24' E 139°41'0 0.0
2014-Apr-11 15:32N 35°24' E 139°41'0 0.0
2014-Apr-11 14:32N 35°24' E 139°41'0 0.0
2014-Apr-11 13:32N 35°24' E 139°41'0 0.4
2014-Apr-11 12:33N 35°24' E 139°41'7 6.7
2014-Apr-11 11:33N 35°18' E 139°45'1110.7
2014-Apr-11 10:33N 35°07' E 139°46'1010.3
2014-Apr-11 09:33N 34°58' E 139°42'1412.3
2014-Apr-11 08:26N 34°51' E 139°56'1313.3
2014-Apr-11 07:26N 34°55' E 140°12'  

Dump ship's entire track history

sailing weather and tide predictions

Sea-land Charger — WDB9948 — position and weather